Weather at Raleigh Durham International Airport

Public forecast

Using degrees Fahrenheit for public forecast. Weather courtesy of forecast.io.

Current aviation weather report (METAR) for Raleigh Durham International Airport

Retrieved 2020/09/30 01:51 UTC (36 minutes ago):

KRDU 300151Z 01005KT 4SM RA BR FEW008 SCT065 OVC100 16/15 A2977 RMK AO2 SLP076 P0017 T01560150

Aviation forecast (TAF) for Raleigh Durham International Airport

Retrieved 2020-09-30 00:42 UTC (2 hours ago):

TAF KRDU 292339Z 3000/3024 VRB15G30KT 1SM +TSRA BKN018CB FM300015 32010G18KT 4SM -SHRA BR SCT017 OVC025 FM300800 31008KT P6SM SCT012 BKN035 FM301500 26010KT P6SM FEW250